createdAt,value
2022-11-28T00:23:48.096Z,35.05
2022-11-28T00:26:19.217Z,37.35
2022-11-28T00:28:45.792Z,34.92
2022-11-28T00:31:16.749Z,38.00
2022-11-28T00:33:43.248Z,41.92
2022-11-28T00:36:10.823Z,45.13
2022-11-28T00:38:37.277Z,40.00
2022-11-28T00:41:09.732Z,47.03
2022-11-28T00:43:36.466Z,44.80
2022-11-28T00:46:04.068Z,47.65
2022-11-28T00:48:31.934Z,48.22
2022-11-28T00:51:06.812Z,44.20
2022-11-28T00:53:32.986Z,45.28
2022-11-28T00:55:59.120Z,48.92
2022-11-28T00:58:25.250Z,51.08
2022-11-28T01:00:51.526Z,49.42
2022-11-28T01:03:17.699Z,42.58
2022-11-28T01:05:43.894Z,44.95
2022-11-28T01:08:10.845Z,44.25
2022-11-28T01:10:42.273Z,50.60
2022-11-28T01:13:09.479Z,43.97
2022-11-28T01:15:35.877Z,49.85
2022-11-28T01:18:02.809Z,49.92
2022-11-28T01:20:29.185Z,49.65
2022-11-28T01:22:55.357Z,49.92
2022-11-28T01:25:21.502Z,47.15
2022-11-28T01:27:47.779Z,45.17
2022-11-28T01:30:14.131Z,51.20
2022-11-28T01:32:40.391Z,52.10
2022-11-28T01:35:06.815Z,47.65
2022-11-28T01:37:32.939Z,55.45
2022-11-28T01:39:59.155Z,54.72
2022-11-28T01:42:25.341Z,49.63
2022-11-28T01:44:54.269Z,47.20
2022-11-28T01:47:30.504Z,48.60
2022-11-28T01:49:56.836Z,52.60
2022-11-28T01:52:23.911Z,48.47
2022-11-28T01:54:54.962Z,47.65
2022-11-28T01:57:23.953Z,49.35
2022-11-28T02:00:06.873Z,50.00
2022-11-28T02:02:49.177Z,49.90
2022-11-28T02:05:16.971Z,52.55
2022-11-28T02:07:44.309Z,50.20
2022-11-28T02:10:13.837Z,50.22
2022-11-28T02:12:58.769Z,51.42
2022-11-28T02:15:54.955Z,50.83
2022-11-28T02:21:24.258Z,47.55
2022-11-28T02:24:13.282Z,47.35
2022-11-28T02:27:16.380Z,49.63
2022-11-28T02:29:57.226Z,50.60
2022-11-28T02:32:34.735Z,49.45
2022-11-28T02:35:36.563Z,53.22
2022-11-28T02:38:40.067Z,54.15
2022-11-28T02:41:09.644Z,48.78
2022-11-28T02:43:52.089Z,44.08
2022-11-28T02:46:22.036Z,51.10
2022-11-28T02:49:06.848Z,50.45
2022-11-28T02:51:42.518Z,46.42
2022-11-28T02:54:13.450Z,50.88
2022-11-28T02:56:39.615Z,45.38
2022-11-28T02:59:37.243Z,53.80
2022-11-28T03:02:13.948Z,49.97
2022-11-28T03:05:13.898Z,46.50
2022-11-28T03:08:05.087Z,51.38
2022-11-28T03:10:45.054Z,47.17
2022-11-28T03:13:17.478Z,54.70
2022-11-28T03:16:15.135Z,48.28
2022-11-28T03:19:05.227Z,50.35
2022-11-28T03:21:47.593Z,46.92
2022-11-28T03:24:22.985Z,51.72
2022-11-28T03:29:37.091Z,45.90
2022-11-28T03:32:11.732Z,46.58
2022-11-28T03:34:44.590Z,48.13
2022-11-28T03:37:23.490Z,48.28
2022-11-28T03:39:55.381Z,47.95
2022-11-28T03:42:24.893Z,45.70
2022-11-28T03:45:12.644Z,48.38
2022-11-28T03:47:43.508Z,51.50
2022-11-28T03:50:17.484Z,53.40
2022-11-28T03:52:51.005Z,46.83
2022-11-28T03:55:33.126Z,48.92
2022-11-28T03:58:07.519Z,45.22
2022-11-28T04:00:38.288Z,56.85
2022-11-28T04:03:24.247Z,52.10
2022-11-28T04:06:19.040Z,55.15
2022-11-28T04:09:18.401Z,54.75
2022-11-28T04:12:04.686Z,53.90
2022-11-28T04:14:39.872Z,55.95
2022-11-28T04:17:13.627Z,53.60
2022-11-28T04:19:55.055Z,46.63
2022-11-28T04:22:42.657Z,51.22
2022-11-28T04:25:13.601Z,60.67
2022-11-28T04:27:53.176Z,52.95
2022-11-28T04:30:19.476Z,54.97
2022-11-28T04:32:55.927Z,53.97
2022-11-28T04:35:31.056Z,53.00
2022-11-28T04:37:59.230Z,52.45
2022-11-28T04:40:27.574Z,56.13
2022-11-28T04:43:01.770Z,62.97
2022-11-28T04:45:36.892Z,60.60
2022-11-28T04:48:03.718Z,63.58
2022-11-28T04:50:44.007Z,65.90
2022-11-28T04:53:20.400Z,67.45
2022-11-28T04:55:52.735Z,64.85
2022-11-28T04:58:25.162Z,60.15
2022-11-28T05:00:55.005Z,66.35
2022-11-28T05:03:22.325Z,64.85
2022-11-28T05:05:51.192Z,67.07
2022-11-28T05:08:18.923Z,62.92
2022-11-28T05:10:45.462Z,74.40
2022-11-28T05:13:11.576Z,67.35
2022-11-28T05:15:37.772Z,61.92
2022-11-28T05:18:04.302Z,67.07
2022-11-28T05:20:30.565Z,61.38
2022-11-28T05:22:56.754Z,64.57
2022-11-28T05:25:23.262Z,63.25
2022-11-28T05:27:49.526Z,62.75
2022-11-28T05:30:15.866Z,61.65
2022-11-28T05:32:42.163Z,63.95
2022-11-28T05:35:08.593Z,59.40
2022-11-28T05:37:34.754Z,65.00
2022-11-28T05:40:00.892Z,63.97
2022-11-28T05:42:28.540Z,64.55
2022-11-28T05:44:54.661Z,63.60
2022-11-28T05:47:20.787Z,59.92
2022-11-28T05:49:47.587Z,61.15
2022-11-28T05:52:13.706Z,61.15
2022-11-28T05:54:39.824Z,54.05
2022-11-28T05:57:08.573Z,52.28
2022-11-28T05:59:34.849Z,54.10
2022-11-28T06:02:01.192Z,51.95
2022-11-28T06:04:27.407Z,50.58
2022-11-28T06:06:53.555Z,53.30
2022-11-28T06:09:23.335Z,51.63
2022-11-28T06:11:51.878Z,49.45
2022-11-28T06:14:18.028Z,53.97
2022-11-28T06:16:44.284Z,54.97
2022-11-28T06:19:12.337Z,51.90
2022-11-28T06:21:38.735Z,55.92
2022-11-28T06:24:05.005Z,47.67
2022-11-28T06:26:31.217Z,50.28
2022-11-28T06:28:57.352Z,50.10
2022-11-28T06:31:28.395Z,50.00
2022-11-28T06:33:54.744Z,47.90
2022-11-28T06:36:21.077Z,49.33
2022-11-28T06:38:47.259Z,48.42
2022-11-28T06:41:17.281Z,50.50
2022-11-28T06:43:43.480Z,49.78
2022-11-28T06:46:21.189Z,43.88
2022-11-28T06:48:48.738Z,47.03
2022-11-28T06:51:15.510Z,47.08
2022-11-28T06:53:42.079Z,46.15
2022-11-28T06:56:11.160Z,52.28
2022-11-28T06:58:37.408Z,51.45
2022-11-28T07:01:13.145Z,54.10
2022-11-28T07:03:39.784Z,46.17
2022-11-28T07:06:06.956Z,45.88
2022-11-28T07:08:33.840Z,43.70
2022-11-28T07:11:08.789Z,45.67
2022-11-28T07:13:34.938Z,46.47
2022-11-28T07:16:01.061Z,45.65
2022-11-28T07:18:27.162Z,45.95
2022-11-28T07:20:53.297Z,44.75
2022-11-28T07:23:19.409Z,44.70
2022-11-28T07:25:45.524Z,46.38
2022-11-28T07:28:11.735Z,48.13
2022-11-28T07:30:37.922Z,48.35
2022-11-28T07:33:04.063Z,48.90
2022-11-28T07:35:30.194Z,49.38
2022-11-28T07:37:56.338Z,48.67
2022-11-28T07:40:22.960Z,45.88
2022-11-28T07:42:49.172Z,46.63
2022-11-28T07:45:15.391Z,47.65
2022-11-28T07:47:41.518Z,46.55
2022-11-28T07:50:08.302Z,50.50
2022-11-28T07:52:34.437Z,46.53
2022-11-28T07:55:00.573Z,53.22
2022-11-28T07:57:26.723Z,48.13
2022-11-28T07:59:52.859Z,48.38
2022-11-28T08:02:19.078Z,45.17
2022-11-28T08:04:50.448Z,42.80
2022-11-28T08:07:19.831Z,49.80
2022-11-28T08:09:46.106Z,44.42
2022-11-28T08:12:12.253Z,47.08
2022-11-28T08:14:38.370Z,50.38
2022-11-28T08:17:04.555Z,46.35
2022-11-28T08:19:35.127Z,43.00
2022-11-28T08:22:01.578Z,51.20
2022-11-28T08:24:27.967Z,47.97
2022-11-28T08:26:54.129Z,46.80
2022-11-28T08:29:20.258Z,52.88
2022-11-28T08:31:46.464Z,50.55
2022-11-28T08:34:12.868Z,48.20
2022-11-28T08:36:39.490Z,45.70
2022-11-28T08:41:59.777Z,45.85
2022-11-28T08:44:27.126Z,46.85
2022-11-28T08:46:54.352Z,45.08
2022-11-28T08:49:20.772Z,40.20
2022-11-28T08:51:47.032Z,47.08
2022-11-28T08:54:13.168Z,43.17
2022-11-28T08:56:39.401Z,47.33
2022-11-28T08:59:07.164Z,43.50
2022-11-28T09:01:33.427Z,42.58
2022-11-28T09:03:59.604Z,44.58
2022-11-28T09:06:25.864Z,46.85
2022-11-28T09:08:52.684Z,42.55
2022-11-28T09:11:20.840Z,41.65
2022-11-28T09:13:48.511Z,46.20
2022-11-28T09:16:15.608Z,41.53
2022-11-28T09:18:42.204Z,45.90
2022-11-28T09:21:10.850Z,42.40
2022-11-28T09:23:41.630Z,46.75
2022-11-28T09:26:12.932Z,45.25
2022-11-28T09:28:40.568Z,44.22
2022-11-28T09:31:07.693Z,45.28
2022-11-28T09:33:34.227Z,40.90
2022-11-28T09:36:14.725Z,44.08
2022-11-28T09:38:41.582Z,44.80
2022-11-28T09:41:29.244Z,46.67
2022-11-28T09:44:01.798Z,41.97
2022-11-28T09:46:33.361Z,48.75
2022-11-28T09:49:03.474Z,41.30
2022-11-28T09:51:52.693Z,46.85
2022-11-28T09:54:44.496Z,44.47
2022-11-28T09:57:30.883Z,46.60
2022-11-28T09:59:57.001Z,43.80
2022-11-28T10:02:41.121Z,43.97
2022-11-28T10:05:24.401Z,48.35
2022-11-28T10:08:19.729Z,43.38
2022-11-28T10:11:04.908Z,49.45
2022-11-28T10:14:06.553Z,47.75
2022-11-28T10:16:55.036Z,42.47
2022-11-28T10:19:53.882Z,44.80
2022-11-28T10:22:28.774Z,39.50
2022-11-28T10:24:57.610Z,46.70
2022-11-28T10:27:34.403Z,38.00
2022-11-28T10:30:15.529Z,46.83
2022-11-28T10:32:47.090Z,39.75
2022-11-28T10:35:42.333Z,47.70
2022-11-28T10:38:12.174Z,41.28
2022-11-28T10:40:56.716Z,38.38
2022-11-28T10:43:38.305Z,44.13
2022-11-28T10:46:12.627Z,43.20
2022-11-28T10:48:55.132Z,41.47
2022-11-28T10:51:38.368Z,42.38
2022-11-28T10:54:16.871Z,41.85
2022-11-28T10:56:57.402Z,45.78
2022-11-28T10:59:38.684Z,48.03
2022-11-28T11:02:19.931Z,40.60
2022-11-28T11:04:46.218Z,37.25
2022-11-28T11:07:21.019Z,41.70
2022-11-28T11:09:50.089Z,42.30
2022-11-28T11:12:21.725Z,42.88
2022-11-28T11:14:47.928Z,44.38
2022-11-28T11:17:36.467Z,44.17
2022-11-28T11:20:18.613Z,43.67
2022-11-28T11:22:55.014Z,43.95
2022-11-28T11:25:21.146Z,42.85
2022-11-28T11:27:56.765Z,40.55
2022-11-28T11:30:43.882Z,42.08
2022-11-28T11:33:17.310Z,42.40
2022-11-28T11:35:47.350Z,47.80
2022-11-28T11:38:22.568Z,45.22
2022-11-28T11:40:52.086Z,47.20
2022-11-28T11:43:31.544Z,42.75
2022-11-28T11:46:14.790Z,47.08
2022-11-28T11:48:50.394Z,42.40
2022-11-28T11:51:25.948Z,44.22
2022-11-28T11:54:14.813Z,46.72
2022-11-28T11:56:44.150Z,46.35
2022-11-28T11:59:16.183Z,43.20
2022-11-28T12:01:45.490Z,51.83
2022-11-28T12:04:45.048Z,48.33
2022-11-28T12:07:24.992Z,46.20
2022-11-28T12:09:54.787Z,45.72
2022-11-28T12:12:29.187Z,45.05
2022-11-28T12:14:55.624Z,43.33
2022-11-28T12:17:50.075Z,45.40
2022-11-28T12:20:26.571Z,44.63
2022-11-28T12:23:29.256Z,46.38
2022-11-28T12:26:23.415Z,44.33
2022-11-28T12:29:21.869Z,45.10
2022-11-28T12:32:22.638Z,44.65
2022-11-28T12:35:16.167Z,45.85
2022-11-28T12:38:10.771Z,48.33
2022-11-28T12:40:59.268Z,41.10
2022-11-28T12:44:02.600Z,40.72
2022-11-28T12:46:34.869Z,43.45
2022-11-28T12:49:17.596Z,48.25
2022-11-28T12:52:08.750Z,44.85
2022-11-28T12:55:20.453Z,47.63
2022-11-28T12:58:06.728Z,48.72
2022-11-28T13:00:34.310Z,49.05
2022-11-28T13:03:21.448Z,40.15
2022-11-28T13:06:24.940Z,46.58
2022-11-28T13:09:14.483Z,41.40
2022-11-28T13:12:17.625Z,42.90
2022-11-28T13:14:54.460Z,42.95
2022-11-28T13:17:45.526Z,42.03
2022-11-28T13:20:29.226Z,42.42
2022-11-28T13:23:29.213Z,42.58
2022-11-28T13:26:17.116Z,39.85
2022-11-28T13:28:57.775Z,39.35
2022-11-28T13:31:40.772Z,42.97
2022-11-28T13:34:15.427Z,42.95
2022-11-28T13:39:46.899Z,40.70
2022-11-28T13:43:02.359Z,43.03
2022-11-28T13:45:34.979Z,37.42
2022-11-28T13:49:06.468Z,44.17
2022-11-28T13:51:35.211Z,41.83
2022-11-28T13:54:19.999Z,43.10
2022-11-28T13:57:06.388Z,44.83
2022-11-28T13:59:33.533Z,48.80
2022-11-28T14:02:02.703Z,41.45
2022-11-28T14:04:31.424Z,45.28
2022-11-28T14:07:03.868Z,43.53
2022-11-28T14:09:47.757Z,49.28
2022-11-28T14:12:24.909Z,42.63
2022-11-28T14:15:10.319Z,46.15
2022-11-28T14:18:54.333Z,47.90
2022-11-28T14:21:40.713Z,46.40
2022-11-28T14:24:53.565Z,45.47
2022-11-28T14:27:30.893Z,49.30
2022-11-28T14:29:58.873Z,44.08
2022-11-28T14:32:31.567Z,44.83
2022-11-28T14:34:59.348Z,46.42
2022-11-28T14:37:29.464Z,47.70
2022-11-28T14:39:57.583Z,41.95
2022-11-28T14:45:34.766Z,42.53
2022-11-28T14:48:18.180Z,51.03
2022-11-28T14:50:59.072Z,50.45
2022-11-28T14:53:34.798Z,51.10
2022-11-28T14:56:11.504Z,52.38
2022-11-28T14:58:38.385Z,45.33
2022-11-28T15:01:10.318Z,45.65
2022-11-28T15:03:59.153Z,45.15
2022-11-28T15:06:35.325Z,49.10
2022-11-28T15:09:19.023Z,46.10
2022-11-28T15:12:00.547Z,43.85
2022-11-28T15:14:29.660Z,44.90
2022-11-28T15:17:00.523Z,44.88
2022-11-28T15:19:33.689Z,43.25
2022-11-28T15:22:00.067Z,46.83
2022-11-28T15:24:33.169Z,47.40
2022-11-28T15:27:22.566Z,47.40
2022-11-28T15:30:15.435Z,55.30
2022-11-28T15:32:42.285Z,54.10
2022-11-28T15:35:15.393Z,50.60
2022-11-28T15:37:51.543Z,50.00
2022-11-28T15:40:31.370Z,50.22
2022-11-28T15:42:59.180Z,46.92
2022-11-28T15:45:28.379Z,54.75
2022-11-28T15:47:55.660Z,49.42
2022-11-28T15:50:25.404Z,53.20
2022-11-28T15:52:58.453Z,51.05
2022-11-28T15:55:28.828Z,48.95
2022-11-28T15:58:19.329Z,47.67
2022-11-28T16:00:52.214Z,56.60
2022-11-28T16:03:26.283Z,49.30
2022-11-28T16:05:54.553Z,52.42
2022-11-28T16:08:36.106Z,53.63
2022-11-28T16:11:04.775Z,56.42
2022-11-28T16:13:32.495Z,54.78
2022-11-28T16:16:01.669Z,53.42
2022-11-28T16:18:29.261Z,57.25
2022-11-28T16:20:58.155Z,53.33
2022-11-28T16:23:35.855Z,57.35
2022-11-28T16:26:04.371Z,61.13
2022-11-28T16:28:36.469Z,50.63
2022-11-28T16:31:09.781Z,54.25
2022-11-28T16:33:41.065Z,52.53
2022-11-28T16:36:33.913Z,54.65
2022-11-28T16:39:10.440Z,52.35
2022-11-28T16:41:38.703Z,56.22
2022-11-28T16:44:11.134Z,54.60
2022-11-28T16:46:58.073Z,52.88
2022-11-28T16:49:34.875Z,52.25
2022-11-28T16:52:20.902Z,63.72
2022-11-28T16:54:54.857Z,61.40
2022-11-28T16:57:21.505Z,60.00
2022-11-28T16:59:49.285Z,60.28
2022-11-28T17:02:19.656Z,64.60
2022-11-28T17:04:47.938Z,62.05
2022-11-28T17:07:16.968Z,55.47
2022-11-28T17:09:44.702Z,61.65
2022-11-28T17:12:24.514Z,64.10
2022-11-28T17:14:50.788Z,69.78
2022-11-28T17:17:18.704Z,59.80
2022-11-28T17:19:45.658Z,66.15
2022-11-28T17:22:16.237Z,65.95
2022-11-28T17:24:42.604Z,56.55
2022-11-28T17:27:12.066Z,61.78
2022-11-28T17:29:38.559Z,59.50
2022-11-28T17:32:05.544Z,62.35
2022-11-28T17:34:33.815Z,61.28
2022-11-28T17:37:01.267Z,62.65
2022-11-28T17:39:28.626Z,65.13
2022-11-28T17:41:56.890Z,63.67
2022-11-28T17:44:24.652Z,60.15
2022-11-28T17:46:52.334Z,69.10
2022-11-28T17:49:19.380Z,67.20
2022-11-28T17:51:46.127Z,65.13
2022-11-28T17:54:17.865Z,59.22
2022-11-28T17:56:45.599Z,64.88
2022-11-28T17:59:13.261Z,62.85
2022-11-28T18:01:39.611Z,64.38
2022-11-28T18:04:05.824Z,60.28
2022-11-28T18:06:32.065Z,57.97
2022-11-28T18:08:59.957Z,61.45
2022-11-28T18:11:27.303Z,59.30
2022-11-28T18:13:54.163Z,64.82
2022-11-28T18:16:23.209Z,61.08
2022-11-28T18:18:49.628Z,57.63
2022-11-28T18:21:16.678Z,55.63
2022-11-28T18:23:46.074Z,62.67
2022-11-28T18:26:14.677Z,67.20
2022-11-28T18:28:41.561Z,66.70
2022-11-28T18:31:11.795Z,61.58
2022-11-28T18:33:38.942Z,59.50
2022-11-28T18:36:13.391Z,66.60
2022-11-28T18:38:40.559Z,59.53
2022-11-28T18:41:09.475Z,60.75
2022-11-28T18:43:36.791Z,60.22
2022-11-28T18:46:26.077Z,63.03
2022-11-28T18:48:53.286Z,62.15
2022-11-28T18:51:26.800Z,59.53
2022-11-28T18:53:54.691Z,68.50
2022-11-28T18:56:23.405Z,61.17
2022-11-28T18:58:54.625Z,63.80
2022-11-28T19:01:22.601Z,65.85
2022-11-28T19:03:50.483Z,59.63
2022-11-28T19:06:17.499Z,62.83
2022-11-28T19:08:43.616Z,58.80
2022-11-28T19:11:14.400Z,60.55
2022-11-28T19:13:42.483Z,61.60
2022-11-28T19:16:13.709Z,61.38
2022-11-28T19:18:40.729Z,58.50
2022-11-28T19:21:10.339Z,59.55
2022-11-28T19:23:36.663Z,64.55
2022-11-28T19:26:11.144Z,61.60
2022-11-28T19:28:39.032Z,60.88
2022-11-28T19:31:15.047Z,63.42
2022-11-28T19:33:45.881Z,59.25
2022-11-28T19:36:15.830Z,58.10
2022-11-28T19:38:42.626Z,57.30
2022-11-28T19:41:10.806Z,54.45
2022-11-28T19:43:37.408Z,60.83
2022-11-28T19:46:04.519Z,58.55
2022-11-28T19:48:33.050Z,57.03
2022-11-28T19:50:59.446Z,53.03
2022-11-28T19:53:26.224Z,53.95
2022-11-28T19:55:54.065Z,56.65
2022-11-28T19:58:20.174Z,56.45
2022-11-28T20:00:46.945Z,58.45
2022-11-28T20:03:13.060Z,57.72
2022-11-28T20:05:41.248Z,63.50
2022-11-28T20:08:08.454Z,56.25
2022-11-28T20:10:36.473Z,57.33
2022-11-28T20:13:02.608Z,59.70
2022-11-28T20:15:28.909Z,57.20
2022-11-28T20:17:55.055Z,54.35
2022-11-28T20:20:22.197Z,54.85
2022-11-28T20:22:48.334Z,59.35
2022-11-28T20:25:20.520Z,54.25
2022-11-28T20:27:48.818Z,54.45
2022-11-28T20:30:15.739Z,57.17
2022-11-28T20:32:42.278Z,53.33
2022-11-28T20:35:09.591Z,53.92
2022-11-28T20:37:36.656Z,55.33
2022-11-28T20:40:02.812Z,54.83
2022-11-28T20:42:28.921Z,52.20
2022-11-28T20:44:55.065Z,57.58
2022-11-28T20:47:21.582Z,55.17
2022-11-28T20:49:47.952Z,52.53
2022-11-28T20:52:14.096Z,50.72
2022-11-28T20:54:40.273Z,54.80
2022-11-28T20:57:20.774Z,50.08
2022-11-28T20:59:47.745Z,48.60
2022-11-28T21:02:14.001Z,51.50
2022-11-28T21:04:40.186Z,51.40
2022-11-28T21:07:06.294Z,51.75
2022-11-28T21:09:32.434Z,50.95
2022-11-28T21:11:59.600Z,50.42
2022-11-28T21:14:27.614Z,51.28
2022-11-28T21:16:54.046Z,51.58
2022-11-28T21:19:20.207Z,52.97
2022-11-28T21:21:46.319Z,52.83
2022-11-28T21:24:14.342Z,55.45
2022-11-28T21:26:45.276Z,54.67
2022-11-28T21:29:14.133Z,52.10
2022-11-28T21:31:42.614Z,52.97
2022-11-28T21:34:14.516Z,55.75
2022-11-28T21:36:41.037Z,50.08
2022-11-28T21:39:07.156Z,53.45
2022-11-28T21:41:33.407Z,49.38
2022-11-28T21:44:00.165Z,48.92
2022-11-28T21:46:27.324Z,49.65
2022-11-28T21:48:53.808Z,50.85
2022-11-28T21:51:23.180Z,51.85
2022-11-28T21:53:49.742Z,51.10
2022-11-28T21:56:15.984Z,49.22
2022-11-28T21:58:42.387Z,54.65
2022-11-28T22:01:11.506Z,49.38
2022-11-28T22:03:38.374Z,45.75
2022-11-28T22:06:13.812Z,48.28
2022-11-28T22:08:39.928Z,48.35
2022-11-28T22:11:11.197Z,46.50
2022-11-28T22:13:39.140Z,50.20
2022-11-28T22:16:20.128Z,49.50
2022-11-28T22:18:48.371Z,49.42
2022-11-28T22:24:04.176Z,48.72
2022-11-28T22:26:31.227Z,47.42
2022-11-28T22:28:58.861Z,49.53
2022-11-28T22:31:25.318Z,56.00
2022-11-28T22:33:51.521Z,51.13
2022-11-28T22:36:20.575Z,49.60
2022-11-28T22:38:48.939Z,51.53
2022-11-28T22:41:27.974Z,53.08
2022-11-28T22:43:56.644Z,52.03
2022-11-28T22:46:23.273Z,48.30
2022-11-28T22:48:50.654Z,50.67
2022-11-28T22:51:23.505Z,49.25
2022-11-28T22:53:57.831Z,46.95
2022-11-28T22:56:26.732Z,52.03
2022-11-28T22:58:53.460Z,52.10
2022-11-28T23:01:24.095Z,49.20
2022-11-28T23:03:51.383Z,45.47
2022-11-28T23:06:20.421Z,45.42
2022-11-28T23:08:53.217Z,52.10
2022-11-28T23:11:22.135Z,50.55
2022-11-28T23:13:50.073Z,52.38
2022-11-28T23:16:26.855Z,48.13
2022-11-28T23:18:55.181Z,50.20
2022-11-28T23:21:23.112Z,50.67
2022-11-28T23:23:49.316Z,53.40
2022-11-28T23:26:22.007Z,58.35
2022-11-28T23:28:49.091Z,51.60
2022-11-28T23:31:25.031Z,54.83
2022-11-28T23:33:52.517Z,56.10
2022-11-28T23:36:27.093Z,56.97
2022-11-28T23:38:56.582Z,55.40
2022-11-28T23:41:23.092Z,57.53
2022-11-28T23:43:49.753Z,56.97
2022-11-28T23:46:17.766Z,54.20
2022-11-28T23:48:45.095Z,56.35
2022-11-28T23:51:15.117Z,53.17
2022-11-28T23:53:42.058Z,57.80
2022-11-28T23:56:14.133Z,56.90
2022-11-28T23:58:41.601Z,54.95
